N23GC KPBI-KLAS
Flight info
| Callsign | N23GC |
|---|---|
| Flight time | N/A |
| Altitude | 40000 |
| Route | OLAKE3 JAYMC Y280 DOLIE/N0487F430 Y280 LEV J86 INW HAHAA RKSTR4 |
| Aircraft | A359/H-SDE2E3GHIJ3J4J5LM1ORWXY/LB1D1 |
Departure
| Time | 2026-04-20 18:59 |
|---|---|
| Airport | Palm Beach International Airport (KPBI) |
Arrival
| Time | N/A |
|---|---|
| Airport | Harry Reid International Airport (KLAS) |
| Time | Latitude | Longitude | Altitude | Speed | Heading |
|---|---|---|---|---|---|
| 2026-04-20 18:30 | 26.67979 | -80.08015 | 28 ft | 0 kts | 272° |
| 2026-04-20 18:50 | 26.67983 | -80.08032 | 28 ft | 7 kts | 289° |
| 2026-04-20 18:50 | 26.68016 | -80.08076 | 28 ft | 8 kts | 298° |
| 2026-04-20 18:51 | 26.68027 | -80.08131 | 28 ft | 6 kts | 297° |
| 2026-04-20 18:51 | 26.68059 | -80.08154 | 28 ft | 5 kts | 327° |
| 2026-04-20 18:51 | 26.68087 | -80.08185 | 28 ft | 7 kts | 306° |
| 2026-04-20 18:51 | 26.68098 | -80.08236 | 28 ft | 8 kts | 274° |
| 2026-04-20 18:52 | 26.68102 | -80.08302 | 28 ft | 10 kts | 272° |
| 2026-04-20 18:52 | 26.68105 | -80.08385 | 28 ft | 12 kts | 272° |
| 2026-04-20 18:52 | 26.68109 | -80.08482 | 28 ft | 13 kts | 272° |
| 2026-04-20 18:52 | 26.68113 | -80.08592 | 28 ft | 15 kts | 272° |
| 2026-04-20 18:53 | 26.68119 | -80.08716 | 28 ft | 17 kts | 273° |
| 2026-04-20 18:53 | 26.68125 | -80.08842 | 28 ft | 16 kts | 273° |
| 2026-04-20 18:53 | 26.68131 | -80.08969 | 28 ft | 17 kts | 273° |
| 2026-04-20 18:53 | 26.68136 | -80.09080 | 28 ft | 12 kts | 272° |
| 2026-04-20 18:54 | 26.68140 | -80.09183 | 28 ft | 14 kts | 272° |
| 2026-04-20 18:54 | 26.68145 | -80.09300 | 28 ft | 16 kts | 273° |
| 2026-04-20 18:54 | 26.68150 | -80.09407 | 28 ft | 13 kts | 272° |
| 2026-04-20 18:54 | 26.68154 | -80.09517 | 28 ft | 15 kts | 273° |
| 2026-04-20 18:55 | 26.68160 | -80.09640 | 28 ft | 15 kts | 272° |
| 2026-04-20 18:55 | 26.68164 | -80.09735 | 28 ft | 13 kts | 272° |
| 2026-04-20 18:55 | 26.68169 | -80.09843 | 28 ft | 15 kts | 273° |
| 2026-04-20 18:55 | 26.68174 | -80.09960 | 28 ft | 15 kts | 272° |
| 2026-04-20 18:56 | 26.68179 | -80.10082 | 28 ft | 17 kts | 273° |
| 2026-04-20 18:56 | 26.68184 | -80.10209 | 28 ft | 17 kts | 272° |
| 2026-04-20 18:56 | 26.68190 | -80.10344 | 28 ft | 18 kts | 272° |
| 2026-04-20 18:56 | 26.68194 | -80.10438 | 28 ft | 11 kts | 272° |
| 2026-04-20 18:57 | 26.68198 | -80.10531 | 28 ft | 13 kts | 272° |
| 2026-04-20 18:57 | 26.68202 | -80.10617 | 28 ft | 11 kts | 273° |
| 2026-04-20 18:57 | 26.68206 | -80.10712 | 28 ft | 13 kts | 273° |
| 2026-04-20 18:57 | 26.68218 | -80.10808 | 28 ft | 9 kts | 299° |
| 2026-04-20 18:58 | 26.68268 | -80.10834 | 28 ft | 8 kts | 356° |
| 2026-04-20 18:58 | 26.68314 | -80.10807 | 28 ft | 7 kts | 52° |
| 2026-04-20 18:58 | 26.68320 | -80.10751 | 28 ft | 8 kts | 94° |
| 2026-04-20 18:58 | 26.68315 | -80.10644 | 28 ft | 38 kts | 92° |
| 2026-04-20 18:59 | 26.68290 | -80.09973 | 28 ft | 131 kts | 99° |
| 2026-04-20 18:59 | 26.68220 | -80.08694 | 381 ft | 182 kts | 90° |
| 2026-04-20 18:59 | 26.68086 | -80.07225 | 1454 ft | 198 kts | 92° |
| 2026-04-20 18:59 | 26.68082 | -80.05633 | 2330 ft | 217 kts | 77° |
| 2026-04-20 19:00 | 26.68575 | -80.03962 | 3147 ft | 232 kts | 62° |
| 2026-04-20 19:00 | 26.69353 | -80.02351 | 4170 ft | 241 kts | 57° |
| 2026-04-20 19:00 | 26.70210 | -80.00681 | 5048 ft | 253 kts | 57° |
| 2026-04-20 19:00 | 26.71147 | -79.98975 | 5931 ft | 260 kts | 50° |
| 2026-04-20 19:01 | 26.72517 | -79.97647 | 6873 ft | 265 kts | 26° |
| 2026-04-20 19:01 | 26.74282 | -79.97033 | 7809 ft | 270 kts | 8° |
| 2026-04-20 19:01 | 26.76177 | -79.96864 | 8746 ft | 277 kts | 354° |
| 2026-04-20 19:01 | 26.78048 | -79.97412 | 9759 ft | 280 kts | 330° |
| 2026-04-20 19:02 | 26.79578 | -79.98769 | 10578 ft | 288 kts | 308° |
| 2026-04-20 19:02 | 26.80554 | -80.00770 | 11040 ft | 309 kts | 289° |
| 2026-04-20 19:02 | 26.81252 | -80.03127 | 11599 ft | 327 kts | 287° |
| 2026-04-20 19:02 | 26.81959 | -80.05584 | 12455 ft | 335 kts | 287° |
| 2026-04-20 19:03 | 26.82700 | -80.08076 | 13374 ft | 340 kts | 287° |
| 2026-04-20 19:03 | 26.83465 | -80.10605 | 14245 ft | 344 kts | 288° |
| 2026-04-20 19:03 | 26.84244 | -80.13152 | 15077 ft | 347 kts | 288° |
| 2026-04-20 19:03 | 26.85034 | -80.15724 | 15932 ft | 350 kts | 288° |
| 2026-04-20 19:04 | 26.85828 | -80.18304 | 16860 ft | 351 kts | 287° |
| 2026-04-20 19:04 | 26.86625 | -80.20892 | 17788 ft | 352 kts | 287° |
| 2026-04-20 19:04 | 26.87427 | -80.23497 | 18679 ft | 354 kts | 287° |
| 2026-04-20 19:04 | 26.88232 | -80.26113 | 19422 ft | 358 kts | 287° |
| 2026-04-20 19:05 | 26.89045 | -80.28760 | 20152 ft | 361 kts | 287° |
| 2026-04-20 19:05 | 26.89857 | -80.31403 | 20889 ft | 364 kts | 288° |
| 2026-04-20 19:05 | 26.90686 | -80.34104 | 21650 ft | 368 kts | 288° |
| 2026-04-20 19:05 | 26.91409 | -80.36866 | 22394 ft | 371 kts | 281° |
| 2026-04-20 19:06 | 26.91805 | -80.39734 | 23157 ft | 374 kts | 278° |
| 2026-04-20 19:06 | 26.92117 | -80.42656 | 23873 ft | 379 kts | 277° |
| 2026-04-20 19:06 | 26.92423 | -80.45564 | 24514 ft | 381 kts | 277° |
| 2026-04-20 19:06 | 26.92741 | -80.48562 | 25216 ft | 383 kts | 277° |
| 2026-04-20 19:07 | 26.93058 | -80.51537 | 25912 ft | 386 kts | 277° |
| 2026-04-20 19:07 | 26.93378 | -80.54528 | 26600 ft | 388 kts | 277° |
| 2026-04-20 19:07 | 26.93696 | -80.57496 | 27263 ft | 390 kts | 276° |
| 2026-04-20 19:07 | 26.94024 | -80.60562 | 27945 ft | 392 kts | 276° |
| 2026-04-20 19:08 | 26.94345 | -80.63569 | 28583 ft | 395 kts | 276° |
| 2026-04-20 19:08 | 26.94999 | -80.69714 | 29859 ft | 400 kts | 276° |
| 2026-04-20 19:08 | 26.95330 | -80.72823 | 30439 ft | 402 kts | 276° |
| 2026-04-20 19:09 | 26.95660 | -80.75944 | 30968 ft | 404 kts | 276° |
| 2026-04-20 19:09 | 26.95979 | -80.79080 | 31505 ft | 406 kts | 275° |
| 2026-04-20 19:09 | 26.96125 | -80.82243 | 32041 ft | 407 kts | 272° |
| 2026-04-20 19:09 | 26.96210 | -80.85419 | 32566 ft | 408 kts | 272° |
| 2026-04-20 19:10 | 26.96305 | -80.88597 | 33059 ft | 409 kts | 272° |
| 2026-04-20 19:10 | 26.96414 | -80.91796 | 33527 ft | 411 kts | 273° |
| 2026-04-20 19:10 | 26.96529 | -80.95005 | 33976 ft | 413 kts | 273° |
| 2026-04-20 19:10 | 26.96649 | -80.98215 | 34363 ft | 415 kts | 273° |
| 2026-04-20 19:11 | 26.96771 | -81.01467 | 34707 ft | 416 kts | 273° |
| 2026-04-20 19:11 | 26.96894 | -81.04710 | 35142 ft | 415 kts | 273° |
| 2026-04-20 19:11 | 26.97016 | -81.07937 | 35610 ft | 415 kts | 273° |
| 2026-04-20 19:11 | 26.97138 | -81.11166 | 36027 ft | 414 kts | 273° |
| 2026-04-20 19:12 | 26.97259 | -81.14392 | 36428 ft | 414 kts | 273° |
| 2026-04-20 19:12 | 26.97380 | -81.17624 | 36830 ft | 414 kts | 273° |
| 2026-04-20 19:12 | 26.97499 | -81.20842 | 37234 ft | 414 kts | 273° |
| 2026-04-20 19:12 | 26.97618 | -81.24061 | 37634 ft | 413 kts | 273° |
| 2026-04-20 19:13 | 26.97735 | -81.27236 | 38032 ft | 413 kts | 273° |
| 2026-04-20 19:13 | 26.97860 | -81.30450 | 38422 ft | 412 kts | 274° |
| 2026-04-20 19:13 | 26.98179 | -81.33681 | 38801 ft | 412 kts | 280° |
| 2026-04-20 19:13 | 26.98844 | -81.36755 | 39094 ft | 412 kts | 287° |
| 2026-04-20 19:14 | 26.99895 | -81.39757 | 39367 ft | 414 kts | 293° |
| 2026-04-20 19:14 | 27.01285 | -81.42599 | 39651 ft | 416 kts | 297° |
| 2026-04-20 19:14 | 27.02800 | -81.45364 | 39922 ft | 417 kts | 299° |
| 2026-04-20 19:14 | 27.04361 | -81.48118 | 40103 ft | 418 kts | 299° |
| 2026-04-20 19:15 | 27.05915 | -81.50824 | 40128 ft | 417 kts | 299° |
| 2026-04-20 19:15 | 27.09072 | -81.56333 | 40131 ft | 417 kts | 299° |
| 2026-04-20 19:16 | 27.12166 | -81.61791 | 40134 ft | 417 kts | 299° |
| 2026-04-20 19:16 | 27.15271 | -81.67303 | 40136 ft | 417 kts | 299° |
| 2026-04-20 19:17 | 27.18369 | -81.72815 | 40141 ft | 417 kts | 299° |
| 2026-04-20 19:17 | 27.21471 | -81.78340 | 40145 ft | 417 kts | 299° |
| 2026-04-20 19:18 | 27.24547 | -81.83822 | 40148 ft | 417 kts | 298° |
| 2026-04-20 19:18 | 27.27510 | -81.89410 | 40150 ft | 415 kts | 293° |
| 2026-04-20 19:19 | 27.29400 | -81.95510 | 40150 ft | 412 kts | 283° |
| 2026-04-20 19:19 | 27.30652 | -82.01814 | 40246 ft | 413 kts | 281° |
| 2026-04-20 19:19 | 27.31234 | -82.04983 | 40495 ft | 413 kts | 281° |
| 2026-04-20 19:20 | 27.31810 | -82.08150 | 40782 ft | 413 kts | 281° |
| 2026-04-20 19:20 | 27.32379 | -82.11270 | 41044 ft | 413 kts | 281° |
| 2026-04-20 19:20 | 27.32961 | -82.14439 | 41142 ft | 414 kts | 281° |
| 2026-04-20 19:21 | 27.34132 | -82.20765 | 41151 ft | 413 kts | 282° |
| 2026-04-20 19:21 | 27.35306 | -82.27083 | 41154 ft | 413 kts | 282° |
| 2026-04-20 19:22 | 27.36478 | -82.33401 | 41155 ft | 413 kts | 281° |
| 2026-04-20 19:22 | 27.37646 | -82.39724 | 41150 ft | 413 kts | 281° |
| 2026-04-20 19:23 | 27.38814 | -82.46058 | 41155 ft | 413 kts | 281° |
| 2026-04-20 19:23 | 27.39977 | -82.52387 | 41158 ft | 413 kts | 281° |
| 2026-04-20 19:24 | 27.41138 | -82.58714 | 41156 ft | 413 kts | 281° |
| 2026-04-20 19:24 | 27.42313 | -82.64999 | 41152 ft | 413 kts | 282° |
| 2026-04-20 19:25 | 27.43503 | -82.71343 | 41156 ft | 413 kts | 282° |
| 2026-04-20 19:25 | 27.44684 | -82.77673 | 41156 ft | 413 kts | 281° |
| 2026-04-20 19:26 | 27.45862 | -82.84017 | 41157 ft | 414 kts | 281° |
| 2026-04-20 19:26 | 27.47034 | -82.90352 | 41151 ft | 414 kts | 281° |
| 2026-04-20 19:27 | 27.48207 | -82.96703 | 41159 ft | 414 kts | 281° |
| 2026-04-20 19:27 | 27.49375 | -83.03050 | 41159 ft | 414 kts | 281° |
| 2026-04-20 19:28 | 27.50347 | -83.08339 | 41157 ft | 414 kts | 281° |
| 2026-04-20 19:28 | 27.51512 | -83.14701 | 41164 ft | 415 kts | 281° |
| 2026-04-20 19:29 | 27.52675 | -83.21060 | 41164 ft | 415 kts | 281° |
| 2026-04-20 19:29 | 27.53836 | -83.27436 | 41169 ft | 415 kts | 281° |
| 2026-04-20 19:30 | 27.54986 | -83.33767 | 41171 ft | 415 kts | 281° |
| 2026-04-20 19:30 | 27.56142 | -83.40147 | 41175 ft | 416 kts | 281° |
| 2026-04-20 19:31 | 27.57297 | -83.46538 | 41180 ft | 416 kts | 281° |
| 2026-04-20 19:31 | 27.58448 | -83.52925 | 41179 ft | 416 kts | 281° |
| 2026-04-20 19:32 | 27.59598 | -83.59322 | 41182 ft | 416 kts | 281° |
| 2026-04-20 19:32 | 27.60746 | -83.65725 | 41182 ft | 416 kts | 281° |
| 2026-04-20 19:33 | 27.61882 | -83.72081 | 41190 ft | 417 kts | 281° |
| 2026-04-20 19:33 | 27.63027 | -83.78509 | 41190 ft | 417 kts | 281° |
| 2026-04-20 19:34 | 27.64168 | -83.84929 | 41191 ft | 417 kts | 281° |
| 2026-04-20 19:34 | 27.65305 | -83.91341 | 41195 ft | 417 kts | 281° |
| 2026-04-20 19:35 | 27.66436 | -83.97739 | 41194 ft | 418 kts | 281° |
| 2026-04-20 19:35 | 27.67571 | -84.04179 | 41195 ft | 418 kts | 281° |
| 2026-04-20 19:36 | 27.68702 | -84.10615 | 41200 ft | 418 kts | 281° |
| 2026-04-20 19:36 | 27.69830 | -84.17051 | 41200 ft | 418 kts | 281° |
| 2026-04-20 19:37 | 27.70956 | -84.23496 | 41201 ft | 419 kts | 281° |
| 2026-04-20 19:37 | 27.72080 | -84.29944 | 41204 ft | 419 kts | 281° |
| 2026-04-20 19:38 | 27.73201 | -84.36399 | 41204 ft | 419 kts | 281° |
| 2026-04-20 19:38 | 27.74313 | -84.42818 | 41203 ft | 419 kts | 281° |
| 2026-04-20 19:39 | 27.75430 | -84.49284 | 41207 ft | 419 kts | 281° |
| 2026-04-20 19:39 | 27.76543 | -84.55742 | 41211 ft | 420 kts | 281° |
| 2026-04-20 19:40 | 27.77655 | -84.62221 | 41211 ft | 420 kts | 281° |
| 2026-04-20 19:40 | 27.78765 | -84.68698 | 41210 ft | 420 kts | 281° |